createdAt,value
2022-12-17T00:01:23.700Z,57.90
2022-12-17T00:06:45.457Z,60.10
2022-12-17T00:12:07.710Z,54.50
2022-12-17T00:22:51.523Z,67.60
2022-12-17T00:28:15.377Z,65.80
2022-12-17T00:33:37.602Z,57.70
2022-12-17T00:38:59.643Z,59.70
2022-12-17T00:44:21.388Z,59.70
2022-12-17T00:49:43.329Z,53.20
2022-12-17T00:55:05.387Z,63.40
2022-12-17T01:00:28.253Z,74.40
2022-12-17T01:05:50.057Z,63.10
2022-12-17T01:11:11.952Z,63.90
2022-12-17T01:16:34.032Z,56.40
2022-12-17T01:21:56.504Z,51.70
2022-12-17T01:27:18.268Z,57.80
2022-12-17T01:32:47.641Z,60.30
2022-12-17T01:38:09.409Z,65.60
2022-12-17T01:43:33.685Z,66.90
2022-12-17T01:48:59.990Z,75.40
2022-12-17T01:54:23.003Z,58.20
2022-12-17T01:59:58.012Z,59.80
2022-12-17T02:05:19.766Z,56.00
2022-12-17T02:10:47.272Z,59.20
2022-12-17T02:16:20.031Z,66.70
2022-12-17T02:21:44.529Z,62.40
2022-12-17T02:27:15.634Z,66.30
2022-12-17T02:32:38.382Z,59.70
2022-12-17T02:38:06.268Z,53.20
2022-12-17T02:43:30.040Z,52.40
2022-12-17T02:48:53.938Z,49.00
2022-12-17T02:54:21.187Z,55.50
2022-12-17T02:59:43.288Z,58.10
2022-12-17T03:05:42.761Z,62.70
2022-12-17T03:10:54.636Z,60.10
2022-12-17T03:16:28.608Z,63.50
2022-12-17T03:21:53.286Z,53.30
2022-12-17T03:27:15.220Z,48.50
2022-12-17T03:32:37.128Z,50.40
2022-12-17T03:37:59.168Z,55.80
2022-12-17T03:43:25.642Z,66.00
2022-12-17T03:48:47.538Z,58.50
2022-12-17T03:54:09.389Z,61.70
2022-12-17T03:59:31.762Z,54.60
2022-12-17T04:04:53.705Z,51.20
2022-12-17T04:10:15.631Z,60.50
2022-12-17T04:15:37.676Z,67.80
2022-12-17T04:20:59.384Z,69.40
2022-12-17T04:26:21.275Z,62.50
2022-12-17T04:31:43.450Z,51.90
2022-12-17T04:37:05.216Z,51.70
2022-12-17T04:42:27.156Z,46.50
2022-12-17T04:47:48.982Z,48.60
2022-12-17T04:53:19.306Z,62.50
2022-12-17T04:58:41.169Z,54.90
2022-12-17T05:04:02.992Z,52.40
2022-12-17T05:09:24.786Z,52.60
2022-12-17T05:14:46.550Z,48.60
2022-12-17T05:20:08.442Z,53.20
2022-12-17T05:25:31.757Z,55.30
2022-12-17T05:30:53.626Z,61.50
2022-12-17T05:36:19.202Z,58.40
2022-12-17T05:41:41.086Z,58.60
2022-12-17T05:47:02.991Z,48.80
2022-12-17T05:52:38.356Z,49.80
2022-12-17T05:58:00.631Z,46.00
2022-12-17T06:14:07.245Z,55.00
2022-12-17T06:19:29.013Z,51.80
2022-12-17T06:24:50.812Z,45.90
2022-12-17T06:30:18.323Z,47.80
2022-12-17T06:35:40.741Z,45.30
2022-12-17T06:41:02.376Z,45.20
2022-12-17T06:46:24.376Z,73.70
2022-12-17T06:51:46.215Z,55.00
2022-12-17T06:57:08.112Z,56.20
2022-12-17T07:02:30.109Z,48.90
2022-12-17T07:07:52.516Z,48.20
2022-12-17T07:13:14.331Z,47.10
2022-12-17T07:18:36.199Z,48.70
2022-12-17T07:23:59.603Z,57.10
2022-12-17T07:29:22.075Z,61.10
2022-12-17T07:34:43.976Z,49.70
2022-12-17T07:40:05.906Z,47.50
2022-12-17T07:45:28.381Z,45.40
2022-12-17T07:50:50.204Z,45.40
2022-12-17T07:56:12.091Z,47.80
2022-12-17T08:01:34.009Z,65.20
2022-12-17T08:07:01.702Z,63.40
2022-12-17T08:12:26.071Z,52.20
2022-12-17T08:17:47.935Z,48.20
2022-12-17T08:28:50.070Z,55.60
2022-12-17T08:34:15.792Z,47.60
2022-12-17T08:39:37.540Z,45.80
2022-12-17T08:44:59.528Z,38.80
2022-12-17T08:50:22.933Z,41.30
2022-12-17T08:55:44.747Z,51.30
2022-12-17T09:01:06.447Z,59.60
2022-12-17T09:06:28.076Z,34.80
2022-12-17T09:11:50.046Z,47.00
2022-12-17T09:17:11.933Z,41.20
2022-12-17T09:22:33.908Z,45.50
2022-12-17T09:27:55.777Z,55.50
2022-12-17T09:33:17.626Z,56.50
2022-12-17T09:38:39.545Z,62.30
2022-12-17T09:44:14.165Z,53.50
2022-12-17T09:49:44.258Z,58.90
2022-12-17T09:55:11.291Z,62.20
2022-12-17T10:00:47.201Z,65.10
2022-12-17T10:06:10.235Z,64.90
2022-12-17T10:11:46.045Z,59.10
2022-12-17T10:17:11.838Z,53.00
2022-12-17T10:22:39.142Z,48.40
2022-12-17T10:28:01.607Z,60.10
2022-12-17T10:33:46.028Z,57.30
2022-12-17T10:39:13.634Z,57.00
2022-12-17T10:44:44.570Z,57.60
2022-12-17T10:50:16.131Z,55.10
2022-12-17T10:56:06.272Z,54.50
2022-12-17T11:01:39.353Z,58.50
2022-12-17T11:07:12.574Z,55.60
2022-12-17T11:12:38.725Z,48.00
2022-12-17T11:18:02.900Z,50.60
2022-12-17T11:23:37.718Z,48.70
2022-12-17T11:28:59.828Z,54.00
2022-12-17T11:34:47.924Z,63.40
2022-12-17T11:40:17.771Z,55.70
2022-12-17T11:45:57.566Z,63.50
2022-12-17T11:51:52.722Z,60.10
2022-12-17T11:57:39.457Z,63.10
2022-12-17T12:03:48.051Z,57.50
2022-12-17T12:09:09.919Z,46.20
2022-12-17T12:14:50.008Z,50.40
2022-12-17T12:20:27.163Z,54.50
2022-12-17T12:25:55.284Z,48.90
2022-12-17T12:31:55.668Z,47.30
2022-12-17T12:37:21.329Z,58.70
2022-12-17T12:42:53.567Z,55.30
2022-12-17T12:49:02.276Z,46.90
2022-12-17T12:55:05.607Z,52.50
2022-12-17T13:01:02.715Z,54.90
2022-12-17T13:06:06.189Z,61.90
2022-12-17T13:11:28.983Z,60.40
2022-12-17T13:16:47.889Z,58.60
2022-12-17T13:21:51.095Z,56.20
2022-12-17T13:26:54.407Z,54.50
2022-12-17T13:32:25.277Z,60.40
2022-12-17T13:37:34.722Z,59.50
2022-12-17T13:42:37.948Z,59.70
2022-12-17T13:47:41.205Z,50.70
2022-12-17T13:52:44.376Z,53.50
2022-12-17T13:57:48.945Z,50.60
2022-12-17T14:02:53.345Z,60.00
2022-12-17T14:08:00.997Z,63.80
2022-12-17T14:13:12.564Z,68.50
2022-12-17T14:18:19.579Z,65.10
2022-12-17T14:23:33.805Z,63.60
2022-12-17T14:28:50.279Z,63.30
2022-12-17T14:34:09.605Z,58.90
2022-12-17T14:39:31.292Z,73.60
2022-12-17T14:44:34.789Z,66.60
2022-12-17T14:49:50.880Z,71.40
2022-12-17T14:54:58.976Z,81.00
2022-12-17T15:00:02.264Z,74.70
2022-12-17T15:05:05.884Z,69.70
2022-12-17T15:10:12.629Z,72.30
2022-12-17T15:15:16.614Z,71.40
2022-12-17T15:20:21.645Z,75.70
2022-12-17T15:25:24.858Z,74.40
2022-12-17T15:30:30.864Z,67.30
2022-12-17T15:35:35.732Z,71.00
2022-12-17T15:40:39.505Z,68.50
2022-12-17T15:45:48.534Z,57.10
2022-12-17T15:50:51.751Z,68.30
2022-12-17T15:56:00.827Z,66.60
2022-12-17T16:01:06.534Z,68.70
2022-12-17T16:06:09.852Z,66.00
2022-12-17T16:11:16.237Z,57.30
2022-12-17T16:16:19.412Z,46.20
2022-12-17T16:21:22.569Z,62.10
2022-12-17T16:26:25.800Z,62.20
2022-12-17T16:31:29.074Z,65.80
2022-12-17T16:36:32.285Z,65.50
2022-12-17T16:41:35.526Z,52.60
2022-12-17T16:46:41.891Z,58.60
2022-12-17T16:51:46.660Z,51.00
2022-12-17T16:56:51.118Z,50.80
2022-12-17T17:01:54.316Z,62.80
2022-12-17T17:06:57.946Z,60.90
2022-12-17T17:12:01.097Z,56.50
2022-12-17T17:17:04.284Z,53.00
2022-12-17T17:22:07.517Z,46.50
2022-12-17T17:27:10.761Z,47.40
2022-12-17T17:32:14.305Z,54.40
2022-12-17T17:37:18.187Z,47.10
2022-12-17T17:42:21.341Z,50.70
2022-12-17T17:47:24.484Z,47.60
2022-12-17T17:52:27.712Z,43.60
2022-12-17T17:57:30.875Z,39.70
2022-12-17T18:02:34.115Z,46.00
2022-12-17T18:07:46.219Z,45.40
2022-12-17T18:13:08.084Z,45.40
2022-12-17T18:18:14.648Z,47.20
2022-12-17T18:23:18.243Z,47.90
2022-12-17T18:28:21.450Z,48.80
2022-12-17T18:33:25.659Z,50.10
2022-12-17T18:38:29.228Z,53.50
2022-12-17T18:43:32.453Z,64.20
2022-12-17T18:48:36.266Z,69.70
2022-12-17T18:53:39.623Z,75.70
2022-12-17T18:58:44.247Z,70.80
2022-12-17T19:03:47.814Z,71.20
2022-12-17T19:08:51.509Z,59.30
2022-12-17T19:13:54.748Z,52.00
2022-12-17T19:19:02.303Z,50.40
2022-12-17T19:24:08.013Z,43.30
2022-12-17T19:29:13.083Z,51.30
2022-12-17T19:34:18.243Z,62.10
2022-12-17T19:39:21.368Z,56.80
2022-12-17T19:44:34.331Z,58.40
2022-12-17T19:49:37.579Z,56.40
2022-12-17T19:54:40.795Z,57.50
2022-12-17T19:59:43.943Z,50.80
2022-12-17T20:04:47.155Z,47.30
2022-12-17T20:09:50.297Z,48.70
2022-12-17T20:14:53.380Z,44.90
2022-12-17T20:19:58.014Z,55.10
2022-12-17T20:25:05.007Z,56.10
2022-12-17T20:30:08.646Z,52.70
2022-12-17T20:35:12.001Z,48.40
2022-12-17T20:40:15.323Z,47.80
2022-12-17T20:45:18.586Z,43.50
2022-12-17T20:50:22.119Z,44.10
2022-12-17T20:55:30.930Z,43.70
2022-12-17T21:00:34.956Z,41.70
2022-12-17T21:05:38.066Z,46.20
2022-12-17T21:10:41.235Z,44.30
2022-12-17T21:15:50.474Z,46.90
2022-12-17T21:21:21.509Z,50.40
2022-12-17T21:26:27.330Z,48.60
2022-12-17T21:31:38.238Z,41.80
2022-12-17T21:36:42.006Z,39.40
2022-12-17T21:42:08.368Z,43.10
2022-12-17T21:47:11.653Z,44.50
2022-12-17T21:52:14.823Z,42.00
2022-12-17T21:57:18.148Z,46.70
2022-12-17T22:02:21.424Z,47.00
2022-12-17T22:07:33.162Z,45.80
2022-12-17T22:13:06.771Z,44.10
2022-12-17T22:18:09.946Z,39.70
2022-12-17T22:23:13.180Z,45.60
2022-12-17T22:28:17.363Z,39.00
2022-12-17T22:33:30.081Z,46.90
2022-12-17T22:42:31.025Z,49.70
2022-12-17T22:44:45.083Z,47.50
2022-12-17T22:49:29.895Z,46.60
2022-12-17T22:54:33.049Z,49.70
2022-12-17T22:59:36.604Z,37.20
2022-12-17T23:04:39.851Z,39.70
2022-12-17T23:09:43.106Z,38.60
2022-12-17T23:14:46.300Z,42.00
2022-12-17T23:19:49.409Z,42.90
2022-12-17T23:24:52.595Z,46.90
2022-12-17T23:29:55.854Z,45.60
2022-12-17T23:34:58.922Z,49.50
2022-12-17T23:40:02.526Z,44.30
2022-12-17T23:45:07.547Z,47.10
2022-12-17T23:50:11.340Z,46.10
2022-12-17T23:55:14.634Z,46.80
